sensor_id;sensor_type;location;lat;lon;timestamp;pressure;altitude;pressure_sealevel;temperature;humidity
50302;BME280;36550;50.472;19.744;2023-04-06T00:02:35;98474.73;;;-2.61;64.85
50302;BME280;36550;50.472;19.744;2023-04-06T00:05:20;98471.55;;;-2.63;64.84
50302;BME280;36550;50.472;19.744;2023-04-06T00:08:05;98476.20;;;-2.62;64.84
50302;BME280;36550;50.472;19.744;2023-04-06T00:10:49;98472.09;;;-2.60;64.91
50302;BME280;36550;50.472;19.744;2023-04-06T00:13:33;98471.56;;;-2.58;65.04
50302;BME280;36550;50.472;19.744;2023-04-06T00:16:18;98472.96;;;-2.56;65.19
50302;BME280;36550;50.472;19.744;2023-04-06T00:19:01;98473.83;;;-2.55;65.36
50302;BME280;36550;50.472;19.744;2023-04-06T00:21:45;98469.33;;;-2.52;65.42
50302;BME280;36550;50.472;19.744;2023-04-06T00:24:29;98464.70;;;-2.50;65.50
50302;BME280;36550;50.472;19.744;2023-04-06T00:27:13;98461.54;;;-2.49;65.71
50302;BME280;36550;50.472;19.744;2023-04-06T00:29:57;98460.60;;;-2.50;65.76
50302;BME280;36550;50.472;19.744;2023-04-06T00:32:41;98458.05;;;-2.50;65.89
50302;BME280;36550;50.472;19.744;2023-04-06T00:35:25;98461.14;;;-2.53;65.98
50302;BME280;36550;50.472;19.744;2023-04-06T00:38:09;98459.95;;;-2.55;65.99
50302;BME280;36550;50.472;19.744;2023-04-06T00:40:53;98458.26;;;-2.57;66.01
50302;BME280;36550;50.472;19.744;2023-04-06T00:43:37;98457.11;;;-2.59;65.98
50302;BME280;36550;50.472;19.744;2023-04-06T00:46:21;98460.58;;;-2.63;65.98
50302;BME280;36550;50.472;19.744;2023-04-06T00:49:05;98458.10;;;-2.68;65.88
50302;BME280;36550;50.472;19.744;2023-04-06T00:51:49;98457.73;;;-2.75;65.80
50302;BME280;36550;50.472;19.744;2023-04-06T00:54:34;98455.50;;;-2.83;65.80
50302;BME280;36550;50.472;19.744;2023-04-06T00:57:18;98455.59;;;-2.90;65.86
50302;BME280;36550;50.472;19.744;2023-04-06T01:00:02;98453.20;;;-2.96;65.89
50302;BME280;36550;50.472;19.744;2023-04-06T01:02:47;98452.58;;;-3.02;65.88
50302;BME280;36550;50.472;19.744;2023-04-06T01:05:34;98450.19;;;-3.08;65.93
50302;BME280;36550;50.472;19.744;2023-04-06T01:08:19;98445.38;;;-3.14;66.10
50302;BME280;36550;50.472;19.744;2023-04-06T01:11:03;98443.92;;;-3.16;66.22
50302;BME280;36550;50.472;19.744;2023-04-06T01:13:47;98439.38;;;-3.15;66.19
50302;BME280;36550;50.472;19.744;2023-04-06T01:16:31;98433.67;;;-3.13;66.41
50302;BME280;36550;50.472;19.744;2023-04-06T01:19:16;98433.95;;;-3.10;66.53
50302;BME280;36550;50.472;19.744;2023-04-06T01:22:00;98433.20;;;-3.05;66.82
50302;BME280;36550;50.472;19.744;2023-04-06T01:24:45;98432.41;;;-3.02;66.91
50302;BME280;36550;50.472;19.744;2023-04-06T01:27:29;98432.04;;;-2.98;66.95
50302;BME280;36550;50.472;19.744;2023-04-06T01:30:13;98431.63;;;-2.96;67.02
50302;BME280;36550;50.472;19.744;2023-04-06T01:32:57;98433.64;;;-2.94;67.10
50302;BME280;36550;50.472;19.744;2023-04-06T01:35:41;98429.52;;;-2.97;67.01
50302;BME280;36550;50.472;19.744;2023-04-06T01:38:25;98427.79;;;-3.02;66.95
50302;BME280;36550;50.472;19.744;2023-04-06T01:41:09;98425.46;;;-3.11;66.90
50302;BME280;36550;50.472;19.744;2023-04-06T01:43:54;98424.32;;;-3.17;66.92
50302;BME280;36550;50.472;19.744;2023-04-06T01:46:38;98423.27;;;-3.23;66.96
50302;BME280;36550;50.472;19.744;2023-04-06T01:49:22;98421.02;;;-3.28;67.00
50302;BME280;36550;50.472;19.744;2023-04-06T01:52:06;98423.39;;;-3.34;66.96
50302;BME280;36550;50.472;19.744;2023-04-06T01:54:50;98424.11;;;-3.40;67.00
50302;BME280;36550;50.472;19.744;2023-04-06T01:57:34;98421.69;;;-3.46;67.06
50302;BME280;36550;50.472;19.744;2023-04-06T02:00:18;98414.55;;;-3.52;67.10
50302;BME280;36550;50.472;19.744;2023-04-06T02:03:03;98417.55;;;-3.59;67.03
50302;BME280;36550;50.472;19.744;2023-04-06T02:05:47;98415.89;;;-3.66;67.21
50302;BME280;36550;50.472;19.744;2023-04-06T02:08:31;98408.05;;;-3.70;67.39
50302;BME280;36550;50.472;19.744;2023-04-06T02:11:15;98408.80;;;-3.73;67.57
50302;BME280;36550;50.472;19.744;2023-04-06T02:13:59;98404.45;;;-3.75;67.55
50302;BME280;36550;50.472;19.744;2023-04-06T02:16:44;98402.13;;;-3.78;67.49
50302;BME280;36550;50.472;19.744;2023-04-06T02:19:28;98401.11;;;-3.75;67.67
50302;BME280;36550;50.472;19.744;2023-04-06T02:22:12;98402.98;;;-3.69;67.92
50302;BME280;36550;50.472;19.744;2023-04-06T02:24:55;98404.50;;;-3.62;67.97
50302;BME280;36550;50.472;19.744;2023-04-06T02:27:40;98409.88;;;-3.56;68.25
50302;BME280;36550;50.472;19.744;2023-04-06T02:30:23;98409.04;;;-3.50;68.31
50302;BME280;36550;50.472;19.744;2023-04-06T02:33:07;98410.15;;;-3.45;68.42
50302;BME280;36550;50.472;19.744;2023-04-06T02:35:51;98406.20;;;-3.41;68.33
50302;BME280;36550;50.472;19.744;2023-04-06T02:38:35;98405.71;;;-3.41;68.13
50302;BME280;36550;50.472;19.744;2023-04-06T02:41:19;98400.23;;;-3.43;68.16
50302;BME280;36550;50.472;19.744;2023-04-06T02:44:05;98398.59;;;-3.48;68.05
50302;BME280;36550;50.472;19.744;2023-04-06T02:46:49;98398.16;;;-3.52;68.01
50302;BME280;36550;50.472;19.744;2023-04-06T02:49:34;98400.52;;;-3.56;68.07
50302;BME280;36550;50.472;19.744;2023-04-06T02:52:18;98404.68;;;-3.59;68.14
50302;BME280;36550;50.472;19.744;2023-04-06T02:55:02;98412.92;;;-3.63;68.25
50302;BME280;36550;50.472;19.744;2023-04-06T02:57:46;98410.88;;;-3.65;68.32
50302;BME280;36550;50.472;19.744;2023-04-06T03:00:30;98412.93;;;-3.67;68.39
50302;BME280;36550;50.472;19.744;2023-04-06T03:03:14;98410.20;;;-3.71;68.51
50302;BME280;36550;50.472;19.744;2023-04-06T03:05:58;98411.52;;;-3.72;68.64
50302;BME280;36550;50.472;19.744;2023-04-06T03:08:43;98417.05;;;-3.74;68.56
50302;BME280;36550;50.472;19.744;2023-04-06T03:11:27;98412.92;;;-3.77;68.53
50302;BME280;36550;50.472;19.744;2023-04-06T03:14:11;98411.95;;;-3.79;68.65
50302;BME280;36550;50.472;19.744;2023-04-06T03:16:55;98411.88;;;-3.80;68.53
50302;BME280;36550;50.472;19.744;2023-04-06T03:19:39;98413.11;;;-3.83;68.49
50302;BME280;36550;50.472;19.744;2023-04-06T03:22:23;98415.39;;;-3.85;68.50
50302;BME280;36550;50.472;19.744;2023-04-06T03:25:07;98412.27;;;-3.85;68.44
50302;BME280;36550;50.472;19.744;2023-04-06T03:27:51;98416.47;;;-3.82;68.42
50302;BME280;36550;50.472;19.744;2023-04-06T03:30:36;98415.15;;;-3.79;68.62
50302;BME280;36550;50.472;19.744;2023-04-06T03:33:21;98410.72;;;-3.75;68.78
50302;BME280;36550;50.472;19.744;2023-04-06T03:36:05;98411.63;;;-3.70;68.87
50302;BME280;36550;50.472;19.744;2023-04-06T03:38:50;98413.36;;;-3.64;68.98
50302;BME280;36550;50.472;19.744;2023-04-06T03:41:34;98412.88;;;-3.56;69.10
50302;BME280;36550;50.472;19.744;2023-04-06T03:44:18;98409.80;;;-3.49;69.37
50302;BME280;36550;50.472;19.744;2023-04-06T03:47:02;98404.94;;;-3.44;69.50
50302;BME280;36550;50.472;19.744;2023-04-06T03:49:46;98410.10;;;-3.40;69.74
50302;BME280;36550;50.472;19.744;2023-04-06T03:52:30;98406.59;;;-3.37;69.64
50302;BME280;36550;50.472;19.744;2023-04-06T03:55:14;98405.26;;;-3.34;69.73
50302;BME280;36550;50.472;19.744;2023-04-06T03:57:58;98408.41;;;-3.31;70.13
50302;BME280;36550;50.472;19.744;2023-04-06T04:00:43;98410.83;;;-3.31;70.12
50302;BME280;36550;50.472;19.744;2023-04-06T04:03:27;98410.03;;;-3.30;69.79
50302;BME280;36550;50.472;19.744;2023-04-06T04:06:11;98409.80;;;-3.29;69.76
50302;BME280;36550;50.472;19.744;2023-04-06T04:08:55;98406.88;;;-3.29;69.79
50302;BME280;36550;50.472;19.744;2023-04-06T04:11:39;98410.98;;;-3.29;69.86
50302;BME280;36550;50.472;19.744;2023-04-06T04:14:23;98409.96;;;-3.29;69.87
50302;BME280;36550;50.472;19.744;2023-04-06T04:17:07;98413.41;;;-3.27;70.11
50302;BME280;36550;50.472;19.744;2023-04-06T04:19:50;98414.49;;;-3.24;70.06
50302;BME280;36550;50.472;19.744;2023-04-06T04:22:34;98413.41;;;-3.19;69.89
50302;BME280;36550;50.472;19.744;2023-04-06T04:25:18;98415.30;;;-3.16;69.95
50302;BME280;36550;50.472;19.744;2023-04-06T04:28:02;98415.34;;;-3.11;70.00
50302;BME280;36550;50.472;19.744;2023-04-06T04:30:46;98411.14;;;-3.00;69.82
50302;BME280;36550;50.472;19.744;2023-04-06T04:33:30;98407.66;;;-2.88;69.79
50302;BME280;36550;50.472;19.744;2023-04-06T04:36:15;98406.00;;;-2.75;69.76
50302;BME280;36550;50.472;19.744;2023-04-06T04:38:59;98405.10;;;-2.61;69.91
50302;BME280;36550;50.472;19.744;2023-04-06T04:41:44;98407.19;;;-2.49;70.07
50302;BME280;36550;50.472;19.744;2023-04-06T04:44:29;98409.27;;;-2.42;70.06
50302;BME280;36550;50.472;19.744;2023-04-06T04:47:12;98407.25;;;-2.37;70.06
50302;BME280;36550;50.472;19.744;2023-04-06T04:49:56;98406.98;;;-2.32;70.08
50302;BME280;36550;50.472;19.744;2023-04-06T04:52:40;98404.41;;;-2.26;70.08
50302;BME280;36550;50.472;19.744;2023-04-06T04:55:25;98403.65;;;-2.20;70.04
50302;BME280;36550;50.472;19.744;2023-04-06T04:58:09;98406.35;;;-2.14;70.00
50302;BME280;36550;50.472;19.744;2023-04-06T05:00:57;98407.05;;;-2.06;69.99
50302;BME280;36550;50.472;19.744;2023-04-06T05:03:41;98407.67;;;-2.00;69.93
50302;BME280;36550;50.472;19.744;2023-04-06T05:06:25;98411.59;;;-1.91;69.89
50302;BME280;36550;50.472;19.744;2023-04-06T05:09:10;98403.09;;;-1.81;70.05
50302;BME280;36550;50.472;19.744;2023-04-06T05:11:54;98404.30;;;-1.70;69.96
50302;BME280;36550;50.472;19.744;2023-04-06T05:14:38;98402.33;;;-1.58;70.06
50302;BME280;36550;50.472;19.744;2023-04-06T05:17:22;98401.52;;;-1.49;70.11
50302;BME280;36550;50.472;19.744;2023-04-06T05:20:06;98401.11;;;-1.40;70.30
50302;BME280;36550;50.472;19.744;2023-04-06T05:22:50;98398.79;;;-1.28;70.36
50302;BME280;36550;50.472;19.744;2023-04-06T05:25:35;98397.12;;;-1.15;70.52
50302;BME280;36550;50.472;19.744;2023-04-06T05:28:19;98396.91;;;-1.00;70.25
50302;BME280;36550;50.472;19.744;2023-04-06T05:31:03;98397.34;;;-0.87;70.16
50302;BME280;36550;50.472;19.744;2023-04-06T05:33:47;98400.14;;;-0.77;70.18
50302;BME280;36550;50.472;19.744;2023-04-06T05:36:31;98396.83;;;-0.70;69.88
50302;BME280;36550;50.472;19.744;2023-04-06T05:39:15;98400.37;;;-0.66;69.63
50302;BME280;36550;50.472;19.744;2023-04-06T05:42:03;98399.74;;;-0.63;69.57
50302;BME280;36550;50.472;19.744;2023-04-06T05:44:47;98396.54;;;-0.58;69.67
50302;BME280;36550;50.472;19.744;2023-04-06T05:47:31;98391.51;;;-0.52;69.66
50302;BME280;36550;50.472;19.744;2023-04-06T05:50:15;98390.47;;;-0.49;69.69
50302;BME280;36550;50.472;19.744;2023-04-06T05:52:59;98393.09;;;-0.39;69.58
50302;BME280;36550;50.472;19.744;2023-04-06T05:55:43;98389.71;;;-0.24;69.43
50302;BME280;36550;50.472;19.744;2023-04-06T05:58:27;98389.27;;;-0.11;69.19
50302;BME280;36550;50.472;19.744;2023-04-06T06:01:11;98395.98;;;-0.01;69.36
50302;BME280;36550;50.472;19.744;2023-04-06T06:03:55;98396.77;;;-0.01;69.25
50302;BME280;36550;50.472;19.744;2023-04-06T06:06:39;98398.08;;;0.00;68.71
50302;BME280;36550;50.472;19.744;2023-04-06T06:09:23;98398.41;;;-0.03;68.17
50302;BME280;36550;50.472;19.744;2023-04-06T06:12:07;98397.38;;;-0.05;67.48
50302;BME280;36550;50.472;19.744;2023-04-06T06:14:51;98398.61;;;-0.04;67.71
50302;BME280;36550;50.472;19.744;2023-04-06T06:17:35;98396.81;;;-0.01;68.06
50302;BME280;36550;50.472;19.744;2023-04-06T06:20:19;98398.02;;;0.02;67.90
50302;BME280;36550;50.472;19.744;2023-04-06T06:23:03;98396.11;;;-0.01;67.03
50302;BME280;36550;50.472;19.744;2023-04-06T06:25:47;98400.77;;;-0.03;67.30
50302;BME280;36550;50.472;19.744;2023-04-06T06:28:31;98398.13;;;-0.04;67.21
50302;BME280;36550;50.472;19.744;2023-04-06T06:31:15;98399.85;;;-0.09;67.57
50302;BME280;36550;50.472;19.744;2023-04-06T06:34:00;98397.11;;;-0.12;67.32
50302;BME280;36550;50.472;19.744;2023-04-06T06:36:44;98392.33;;;-0.12;67.46
50302;BME280;36550;50.472;19.744;2023-04-06T06:39:28;98396.63;;;-0.16;66.88
50302;BME280;36550;50.472;19.744;2023-04-06T06:42:12;98396.06;;;-0.12;67.19
50302;BME280;36550;50.472;19.744;2023-04-06T06:44:56;98397.52;;;-0.13;67.22
50302;BME280;36550;50.472;19.744;2023-04-06T06:47:40;98399.44;;;-0.07;67.57
50302;BME280;36550;50.472;19.744;2023-04-06T06:50:24;98396.59;;;-0.00;67.50
50302;BME280;36550;50.472;19.744;2023-04-06T06:53:09;98390.73;;;0.05;67.19
50302;BME280;36550;50.472;19.744;2023-04-06T06:55:53;98393.77;;;0.07;66.51
50302;BME280;36550;50.472;19.744;2023-04-06T06:58:36;98389.86;;;0.10;66.40
50302;BME280;36550;50.472;19.744;2023-04-06T07:01:20;98387.30;;;0.13;65.67
50302;BME280;36550;50.472;19.744;2023-04-06T07:04:04;98388.90;;;0.23;66.54
50302;BME280;36550;50.472;19.744;2023-04-06T07:06:48;98393.09;;;0.28;65.81
50302;BME280;36550;50.472;19.744;2023-04-06T07:09:33;98396.16;;;0.26;64.94
50302;BME280;36550;50.472;19.744;2023-04-06T07:12:17;98401.71;;;0.25;64.70
50302;BME280;36550;50.472;19.744;2023-04-06T07:15:02;98395.84;;;0.20;64.64
50302;BME280;36550;50.472;19.744;2023-04-06T07:17:46;98397.45;;;0.34;65.06
50302;BME280;36550;50.472;19.744;2023-04-06T07:20:30;98392.11;;;0.38;64.62
50302;BME280;36550;50.472;19.744;2023-04-06T07:23:13;98394.77;;;0.42;64.18
50302;BME280;36550;50.472;19.744;2023-04-06T07:25:58;98399.23;;;0.49;64.15
50302;BME280;36550;50.472;19.744;2023-04-06T07:28:41;98396.10;;;0.63;64.00
50302;BME280;36550;50.472;19.744;2023-04-06T07:31:25;98392.23;;;0.76;63.43
50302;BME280;36550;50.472;19.744;2023-04-06T07:34:09;98392.45;;;0.87;63.37
50302;BME280;36550;50.472;19.744;2023-04-06T07:36:53;98386.36;;;1.06;63.37
50302;BME280;36550;50.472;19.744;2023-04-06T07:39:37;98389.53;;;1.23;62.48
50302;BME280;36550;50.472;19.744;2023-04-06T07:42:21;98381.88;;;1.33;61.49
50302;BME280;36550;50.472;19.744;2023-04-06T07:45:06;98385.80;;;1.48;60.86
50302;BME280;36550;50.472;19.744;2023-04-06T07:47:50;98387.41;;;1.56;60.37
50302;BME280;36550;50.472;19.744;2023-04-06T07:50:34;98379.59;;;1.72;60.74
50302;BME280;36550;50.472;19.744;2023-04-06T07:53:18;98378.78;;;1.94;60.84
50302;BME280;36550;50.472;19.744;2023-04-06T07:56:02;98373.78;;;2.03;58.95
50302;BME280;36550;50.472;19.744;2023-04-06T07:58:46;98372.85;;;2.16;59.19
50302;BME280;36550;50.472;19.744;2023-04-06T08:01:31;98374.04;;;2.26;58.33
50302;BME280;36550;50.472;19.744;2023-04-06T08:04:15;98374.33;;;2.35;57.85
50302;BME280;36550;50.472;19.744;2023-04-06T08:06:59;98371.22;;;2.41;57.47
50302;BME280;36550;50.472;19.744;2023-04-06T08:09:43;98372.22;;;2.45;55.79
50302;BME280;36550;50.472;19.744;2023-04-06T08:12:27;98373.05;;;2.46;55.82
50302;BME280;36550;50.472;19.744;2023-04-06T08:15:10;98367.21;;;2.53;55.45
50302;BME280;36550;50.472;19.744;2023-04-06T08:17:55;98367.86;;;2.62;56.07
50302;BME280;36550;50.472;19.744;2023-04-06T08:20:40;98362.98;;;2.61;55.30
50302;BME280;36550;50.472;19.744;2023-04-06T08:23:25;98366.58;;;2.60;54.18
50302;BME280;36550;50.472;19.744;2023-04-06T08:26:09;98361.19;;;2.62;54.74
50302;BME280;36550;50.472;19.744;2023-04-06T08:28:54;98363.19;;;2.67;54.13
50302;BME280;36550;50.472;19.744;2023-04-06T08:31:37;98352.46;;;2.70;54.20
50302;BME280;36550;50.472;19.744;2023-04-06T08:34:22;98346.33;;;2.77;53.89
50302;BME280;36550;50.472;19.744;2023-04-06T08:37:06;98349.63;;;2.84;53.72
50302;BME280;36550;50.472;19.744;2023-04-06T08:39:50;98340.47;;;2.96;54.13
50302;BME280;36550;50.472;19.744;2023-04-06T08:42:39;98343.45;;;3.10;54.08
50302;BME280;36550;50.472;19.744;2023-04-06T08:45:24;98337.55;;;3.13;53.29
50302;BME280;36550;50.472;19.744;2023-04-06T08:48:09;98339.54;;;3.15;53.11
50302;BME280;36550;50.472;19.744;2023-04-06T08:50:54;98335.27;;;3.20;52.83
50302;BME280;36550;50.472;19.744;2023-04-06T08:53:39;98341.59;;;3.19;52.70
50302;BME280;36550;50.472;19.744;2023-04-06T08:56:24;98324.45;;;3.15;52.82
50302;BME280;36550;50.472;19.744;2023-04-06T08:59:09;98324.42;;;3.27;53.13
50302;BME280;36550;50.472;19.744;2023-04-06T09:01:54;98326.09;;;3.38;52.97
50302;BME280;36550;50.472;19.744;2023-04-06T09:04:39;98331.04;;;3.39;52.71
50302;BME280;36550;50.472;19.744;2023-04-06T09:07:23;98329.67;;;3.37;52.18
50302;BME280;36550;50.472;19.744;2023-04-06T09:10:10;98325.30;;;3.45;52.57
50302;BME280;36550;50.472;19.744;2023-04-06T09:13:06;98324.73;;;3.48;52.31
50302;BME280;36550;50.472;19.744;2023-04-06T09:16:03;98318.41;;;3.51;52.02
50302;BME280;36550;50.472;19.744;2023-04-06T09:18:48;98310.63;;;3.48;52.30
50302;BME280;36550;50.472;19.744;2023-04-06T09:21:32;98311.64;;;3.26;51.49
50302;BME280;36550;50.472;19.744;2023-04-06T09:24:16;98308.54;;;3.40;52.53
50302;BME280;36550;50.472;19.744;2023-04-06T09:27:04;98309.59;;;3.57;52.69
50302;BME280;36550;50.472;19.744;2023-04-06T09:29:48;98311.39;;;3.60;51.71
50302;BME280;36550;50.472;19.744;2023-04-06T09:32:32;98300.75;;;3.52;51.12
50302;BME280;36550;50.472;19.744;2023-04-06T09:35:16;98293.16;;;3.70;52.22
50302;BME280;36550;50.472;19.744;2023-04-06T09:38:10;98296.98;;;3.71;51.08
50302;BME280;36550;50.472;19.744;2023-04-06T09:40:54;98300.34;;;3.61;50.87
50302;BME280;36550;50.472;19.744;2023-04-06T09:43:38;98300.30;;;3.58;51.27
50302;BME280;36550;50.472;19.744;2023-04-06T09:46:22;98295.88;;;3.53;51.42
50302;BME280;36550;50.472;19.744;2023-04-06T09:49:07;98288.30;;;3.59;52.68
50302;BME280;36550;50.472;19.744;2023-04-06T09:52:01;98289.77;;;3.56;52.38
50302;BME280;36550;50.472;19.744;2023-04-06T09:54:48;98291.48;;;3.52;52.31
50302;BME280;36550;50.472;19.744;2023-04-06T09:57:51;98300.77;;;3.49;52.00
50302;BME280;36550;50.472;19.744;2023-04-06T10:03:54;98299.04;;;3.36;51.93
50302;BME280;36550;50.472;19.744;2023-04-06T10:06:40;98287.09;;;3.35;52.08
50302;BME280;36550;50.472;19.744;2023-04-06T10:09:28;98287.58;;;3.36;52.86
50302;BME280;36550;50.472;19.744;2023-04-06T10:12:19;98290.95;;;3.40;52.56
50302;BME280;36550;50.472;19.744;2023-04-06T10:15:03;98284.73;;;3.52;52.68
50302;BME280;36550;50.472;19.744;2023-04-06T10:17:48;98283.03;;;3.63;52.43
50302;BME280;36550;50.472;19.744;2023-04-06T10:23:39;98277.70;;;3.88;52.14
50302;BME280;36550;50.472;19.744;2023-04-06T10:26:25;98273.40;;;4.06;51.97
50302;BME280;36550;50.472;19.744;2023-04-06T10:29:09;98274.70;;;4.27;52.53
50302;BME280;36550;50.472;19.744;2023-04-06T10:31:53;98271.05;;;4.35;51.43
50302;BME280;36550;50.472;19.744;2023-04-06T10:34:38;98268.53;;;4.29;50.89
50302;BME280;36550;50.472;19.744;2023-04-06T10:37:22;98267.25;;;4.34;51.53
50302;BME280;36550;50.472;19.744;2023-04-06T10:40:18;98268.45;;;4.10;51.78
50302;BME280;36550;50.472;19.744;2023-04-06T10:43:13;98261.97;;;4.09;53.16
50302;BME280;36550;50.472;19.744;2023-04-06T10:45:59;98254.96;;;4.13;53.36
50302;BME280;36550;50.472;19.744;2023-04-06T10:48:45;98262.31;;;4.16;53.00
50302;BME280;36550;50.472;19.744;2023-04-06T10:51:31;98264.90;;;4.06;53.45
50302;BME280;36550;50.472;19.744;2023-04-06T10:54:16;98263.25;;;3.92;54.00
50302;BME280;36550;50.472;19.744;2023-04-06T10:57:01;98262.89;;;3.80;54.70
50302;BME280;36550;50.472;19.744;2023-04-06T10:59:45;98259.94;;;3.73;55.82
50302;BME280;36550;50.472;19.744;2023-04-06T11:02:29;98260.16;;;3.68;56.61
50302;BME280;36550;50.472;19.744;2023-04-06T11:05:13;98256.91;;;3.63;57.07
50302;BME280;36550;50.472;19.744;2023-04-06T11:07:57;98262.89;;;3.51;58.40
50302;BME280;36550;50.472;19.744;2023-04-06T11:10:41;98263.08;;;3.42;60.04
50302;BME280;36550;50.472;19.744;2023-04-06T11:16:29;98258.62;;;3.43;59.80
50302;BME280;36550;50.472;19.744;2023-04-06T11:19:13;98260.93;;;3.40;59.59
50302;BME280;36550;50.472;19.744;2023-04-06T11:22:06;98263.40;;;3.30;59.99
50302;BME280;36550;50.472;19.744;2023-04-06T11:24:51;98263.79;;;3.19;60.94
50302;BME280;36550;50.472;19.744;2023-04-06T11:27:35;98263.04;;;3.14;61.28
50302;BME280;36550;50.472;19.744;2023-04-06T11:30:19;98252.10;;;3.06;62.41
50302;BME280;36550;50.472;19.744;2023-04-06T11:33:03;98255.10;;;3.13;62.45
50302;BME280;36550;50.472;19.744;2023-04-06T11:35:48;98251.34;;;3.06;63.20
50302;BME280;36550;50.472;19.744;2023-04-06T11:38:33;98251.17;;;2.85;65.67
50302;BME280;36550;50.472;19.744;2023-04-06T11:41:17;98249.73;;;2.64;66.46
50302;BME280;36550;50.472;19.744;2023-04-06T11:44:01;98250.36;;;2.55;67.15
50302;BME280;36550;50.472;19.744;2023-04-06T11:46:53;98247.31;;;2.36;68.55
50302;BME280;36550;50.472;19.744;2023-04-06T11:49:39;98248.64;;;2.19;70.26
50302;BME280;36550;50.472;19.744;2023-04-06T11:52:24;98238.90;;;2.18;70.25
50302;BME280;36550;50.472;19.744;2023-04-06T11:55:12;98242.38;;;2.11;71.44
50302;BME280;36550;50.472;19.744;2023-04-06T11:57:58;98241.27;;;2.03;72.24
50302;BME280;36550;50.472;19.744;2023-04-06T12:00:43;98241.77;;;2.03;72.73
50302;BME280;36550;50.472;19.744;2023-04-06T12:03:29;98233.38;;;1.99;73.35
50302;BME280;36550;50.472;19.744;2023-04-06T12:06:13;98235.56;;;1.99;73.66
50302;BME280;36550;50.472;19.744;2023-04-06T12:08:57;98227.58;;;1.92;74.37
50302;BME280;36550;50.472;19.744;2023-04-06T12:11:41;98226.87;;;1.91;75.13
50302;BME280;36550;50.472;19.744;2023-04-06T12:14:25;98226.73;;;1.95;75.09
50302;BME280;36550;50.472;19.744;2023-04-06T12:17:08;98223.91;;;1.99;74.78
50302;BME280;36550;50.472;19.744;2023-04-06T12:19:52;98215.96;;;2.02;74.67
50302;BME280;36550;50.472;19.744;2023-04-06T12:22:36;98216.27;;;1.99;75.52
50302;BME280;36550;50.472;19.744;2023-04-06T12:25:21;98210.67;;;2.03;75.66
50302;BME280;36550;50.472;19.744;2023-04-06T12:28:05;98212.16;;;2.12;75.20
50302;BME280;36550;50.472;19.744;2023-04-06T12:30:50;98211.89;;;2.12;75.02
50302;BME280;36550;50.472;19.744;2023-04-06T12:33:34;98214.98;;;2.16;75.24
50302;BME280;36550;50.472;19.744;2023-04-06T12:36:19;98216.17;;;2.13;75.58
50302;BME280;36550;50.472;19.744;2023-04-06T12:39:05;98217.33;;;2.04;76.03
50302;BME280;36550;50.472;19.744;2023-04-06T12:41:49;98210.27;;;1.96;76.04
50302;BME280;36550;50.472;19.744;2023-04-06T12:44:33;98210.80;;;1.84;77.06
50302;BME280;36550;50.472;19.744;2023-04-06T12:47:17;98208.06;;;1.81;77.48
50302;BME280;36550;50.472;19.744;2023-04-06T12:50:02;98205.91;;;1.77;77.66
50302;BME280;36550;50.472;19.744;2023-04-06T12:52:47;98203.91;;;1.78;78.10
50302;BME280;36550;50.472;19.744;2023-04-06T12:55:31;98201.67;;;1.79;78.26
50302;BME280;36550;50.472;19.744;2023-04-06T12:58:17;98202.51;;;1.75;78.45
50302;BME280;36550;50.472;19.744;2023-04-06T13:01:05;98200.69;;;1.76;78.04
50302;BME280;36550;50.472;19.744;2023-04-06T13:03:50;98195.93;;;1.72;78.54
50302;BME280;36550;50.472;19.744;2023-04-06T13:06:34;98194.33;;;1.71;79.02
50302;BME280;36550;50.472;19.744;2023-04-06T13:09:18;98187.56;;;1.79;78.28
50302;BME280;36550;50.472;19.744;2023-04-06T13:12:02;98187.94;;;1.82;78.54
50302;BME280;36550;50.472;19.744;2023-04-06T13:14:46;98188.73;;;1.76;78.96
50302;BME280;36550;50.472;19.744;2023-04-06T13:17:34;98180.56;;;1.81;78.57
50302;BME280;36550;50.472;19.744;2023-04-06T13:20:18;98181.73;;;1.80;78.80
50302;BME280;36550;50.472;19.744;2023-04-06T13:23:03;98180.77;;;1.84;78.67
50302;BME280;36550;50.472;19.744;2023-04-06T13:25:47;98177.98;;;1.89;79.24
50302;BME280;36550;50.472;19.744;2023-04-06T13:28:31;98169.92;;;1.97;79.08
50302;BME280;36550;50.472;19.744;2023-04-06T13:31:16;98168.19;;;2.06;78.89
50302;BME280;36550;50.472;19.744;2023-04-06T13:34:00;98159.60;;;2.08;78.90
50302;BME280;36550;50.472;19.744;2023-04-06T13:36:44;98158.34;;;2.16;78.52
50302;BME280;36550;50.472;19.744;2023-04-06T13:39:27;98152.70;;;2.26;78.44
50302;BME280;36550;50.472;19.744;2023-04-06T13:42:11;98156.00;;;2.29;78.56
50302;BME280;36550;50.472;19.744;2023-04-06T13:44:55;98149.98;;;2.25;78.77
50302;BME280;36550;50.472;19.744;2023-04-06T13:47:39;98146.23;;;2.25;78.66
50302;BME280;36550;50.472;19.744;2023-04-06T13:50:27;98149.25;;;2.30;78.61
50302;BME280;36550;50.472;19.744;2023-04-06T13:53:11;98150.48;;;2.30;79.02
50302;BME280;36550;50.472;19.744;2023-04-06T13:55:55;98147.89;;;2.31;80.13
50302;BME280;36550;50.472;19.744;2023-04-06T13:58:39;98150.48;;;2.33;78.97
50302;BME280;36550;50.472;19.744;2023-04-06T14:01:23;98149.92;;;2.22;79.99
50302;BME280;36550;50.472;19.744;2023-04-06T14:04:07;98149.27;;;2.17;79.59
50302;BME280;36550;50.472;19.744;2023-04-06T14:06:50;98145.30;;;2.12;79.39
50302;BME280;36550;50.472;19.744;2023-04-06T14:09:35;98140.81;;;2.11;79.70
50302;BME280;36550;50.472;19.744;2023-04-06T14:12:19;98143.19;;;2.05;79.96
50302;BME280;36550;50.472;19.744;2023-04-06T14:15:10;98143.20;;;1.99;79.62
50302;BME280;36550;50.472;19.744;2023-04-06T14:17:54;98141.94;;;1.93;79.88
50302;BME280;36550;50.472;19.744;2023-04-06T14:20:38;98144.39;;;1.87;80.15
50302;BME280;36550;50.472;19.744;2023-04-06T14:23:23;98141.93;;;1.75;80.89
50302;BME280;36550;50.472;19.744;2023-04-06T14:26:08;98145.71;;;1.63;82.99
50302;BME280;36550;50.472;19.744;2023-04-06T14:28:52;98145.27;;;1.53;82.99
50302;BME280;36550;50.472;19.744;2023-04-06T14:31:36;98153.26;;;1.43;83.68
50302;BME280;36550;50.472;19.744;2023-04-06T14:34:20;98146.99;;;1.38;84.12
50302;BME280;36550;50.472;19.744;2023-04-06T14:37:05;98142.80;;;1.35;84.05